createdAt,value
2023-03-04T00:05:52.733Z,2.27
2023-03-04T00:12:35.071Z,2.26
2023-03-04T00:19:17.402Z,2.23
2023-03-04T00:25:59.733Z,2.25
2023-03-04T00:32:42.107Z,2.25
2023-03-04T00:39:24.498Z,2.27
2023-03-04T00:46:07.290Z,2.29
2023-03-04T00:52:49.788Z,2.36
2023-03-04T00:59:33.097Z,2.41
2023-03-04T01:06:15.941Z,2.44
2023-03-04T01:12:58.322Z,2.50
2023-03-04T01:19:42.495Z,2.54
2023-03-04T01:26:24.953Z,2.57
2023-03-04T01:33:07.591Z,2.63
2023-03-04T01:39:49.913Z,2.60
2023-03-04T01:46:32.903Z,2.62
2023-03-04T01:53:27.135Z,2.64
2023-03-04T02:00:25.521Z,2.64
2023-03-04T02:07:08.919Z,2.63
2023-03-04T02:13:53.528Z,2.59
2023-03-04T02:21:23.177Z,2.58
2023-03-04T02:28:05.650Z,2.54
2023-03-04T02:34:50.878Z,2.51
2023-03-04T02:41:33.619Z,2.52
2023-03-04T02:48:22.311Z,2.52
2023-03-04T02:55:05.188Z,2.48
2023-03-04T03:01:47.846Z,2.48
2023-03-04T03:08:30.479Z,2.49
2023-03-04T03:15:13.568Z,2.48
2023-03-04T03:21:56.126Z,2.46
2023-03-04T03:28:38.652Z,2.48
2023-03-04T03:35:21.417Z,2.48
2023-03-04T03:42:04.175Z,2.45
2023-03-04T03:48:46.690Z,2.44
2023-03-04T03:55:29.339Z,2.44
2023-03-04T04:02:11.783Z,2.44
2023-03-04T04:08:54.166Z,2.43
2023-03-04T04:15:38.724Z,2.37
2023-03-04T04:22:21.727Z,2.35
2023-03-04T04:29:04.413Z,2.30
2023-03-04T04:35:48.669Z,2.26
2023-03-04T04:42:31.171Z,2.24
2023-03-04T04:49:13.691Z,2.17
2023-03-04T04:55:56.087Z,2.11
2023-03-04T05:02:38.621Z,2.08
2023-03-04T05:09:23.006Z,2.03
2023-03-04T05:16:06.105Z,1.98
2023-03-04T05:22:48.526Z,1.93
2023-03-04T05:29:30.951Z,1.91
2023-03-04T05:36:13.348Z,1.88
2023-03-04T05:42:58.676Z,1.87
2023-03-04T05:49:41.978Z,1.90
2023-03-04T05:56:24.456Z,1.93
2023-03-04T06:03:06.816Z,1.97
2023-03-04T06:09:51.828Z,2.02
2023-03-04T06:16:34.379Z,2.08
2023-03-04T06:23:17.492Z,2.13
2023-03-04T06:30:01.790Z,2.16
2023-03-04T06:36:44.748Z,2.19
2023-03-04T06:43:27.262Z,2.22
2023-03-04T06:50:12.525Z,2.26
2023-03-04T06:56:54.878Z,2.29
2023-03-04T07:03:37.239Z,2.36
2023-03-04T07:10:20.498Z,2.42
2023-03-04T07:17:02.870Z,2.49
2023-03-04T07:23:45.575Z,2.55
2023-03-04T07:30:27.992Z,2.61
2023-03-04T07:37:10.453Z,2.66
2023-03-04T07:43:59.493Z,2.74
2023-03-04T07:50:42.085Z,2.83
2023-03-04T07:57:24.472Z,2.90
2023-03-04T08:04:08.027Z,2.97
2023-03-04T08:10:50.562Z,3.04
2023-03-04T08:17:32.848Z,3.08
2023-03-04T08:24:15.166Z,3.10
2023-03-04T08:30:57.654Z,3.12
2023-03-04T08:37:40.100Z,3.12
2023-03-04T08:44:22.455Z,3.12
2023-03-04T08:51:11.325Z,3.13
2023-03-04T08:57:53.634Z,3.17
2023-03-04T09:04:37.733Z,3.21
2023-03-04T09:11:20.147Z,3.25
2023-03-04T09:18:04.068Z,3.24
2023-03-04T09:24:46.354Z,3.28
2023-03-04T09:31:29.765Z,3.30
2023-03-04T09:38:12.147Z,3.28
2023-03-04T09:44:55.553Z,3.24
2023-03-04T09:51:46.997Z,3.22
2023-03-04T09:59:07.608Z,3.19
2023-03-04T10:06:06.178Z,3.24
2023-03-04T10:12:51.224Z,3.28
2023-03-04T10:20:06.106Z,3.34
2023-03-04T10:27:07.454Z,3.30
2023-03-04T10:33:50.234Z,3.20
2023-03-04T10:40:39.655Z,3.22
2023-03-04T10:47:31.522Z,3.06
2023-03-04T10:54:34.270Z,2.93
2023-03-04T11:01:17.718Z,2.83
2023-03-04T11:08:00.729Z,2.80
2023-03-04T11:14:49.310Z,2.65
2023-03-04T11:21:40.333Z,2.65
2023-03-04T11:28:54.411Z,2.55
2023-03-04T11:36:21.740Z,2.65
2023-03-04T11:43:18.724Z,2.90
2023-03-04T11:50:57.089Z,3.03
2023-03-04T11:58:04.754Z,3.25
2023-03-04T12:05:18.725Z,3.33
2023-03-04T12:12:27.129Z,3.23
2023-03-04T12:19:43.881Z,3.23
2023-03-04T12:27:07.952Z,3.34
2023-03-04T12:34:19.357Z,3.42
2023-03-04T12:41:29.676Z,3.61
2023-03-04T12:49:04.214Z,4.00
2023-03-04T12:55:47.909Z,4.01
2023-03-04T13:02:58.451Z,3.89
2023-03-04T13:09:55.900Z,3.35
2023-03-04T13:17:02.000Z,2.77
2023-03-04T13:23:44.660Z,2.49
2023-03-04T13:30:33.561Z,2.12
2023-03-04T13:37:36.128Z,1.99
2023-03-04T13:44:58.607Z,1.88
2023-03-04T13:51:45.222Z,1.77
2023-03-04T13:58:28.259Z,1.61
2023-03-04T14:05:12.537Z,1.44
2023-03-04T14:12:03.925Z,1.36
2023-03-04T14:18:46.718Z,1.22
2023-03-04T14:25:36.887Z,1.04
2023-03-04T14:32:20.598Z,0.93
2023-03-04T14:39:07.337Z,1.08
2023-03-04T14:45:53.865Z,1.18
2023-03-04T14:52:46.267Z,1.07
2023-03-04T14:59:35.233Z,0.91
2023-03-04T15:06:26.244Z,0.73
2023-03-04T15:13:09.905Z,0.63
2023-03-04T15:20:07.545Z,0.53
2023-03-04T15:26:50.554Z,0.47
2023-03-04T15:33:34.004Z,0.27
2023-03-04T15:40:43.104Z,0.12
2023-03-04T15:47:25.852Z,0.03
2023-03-04T15:54:14.103Z,-0.02
2023-03-04T16:00:56.649Z,-0.15
2023-03-04T16:07:43.224Z,-0.26
2023-03-04T16:14:27.440Z,-0.40
2023-03-04T16:21:18.511Z,-0.49
2023-03-04T16:28:04.312Z,-0.55
2023-03-04T16:34:47.542Z,-0.65
2023-03-04T16:41:30.855Z,-0.73
2023-03-04T16:48:13.291Z,-0.81
2023-03-04T16:54:56.117Z,-0.88
2023-03-04T17:01:38.708Z,-0.92
2023-03-04T17:08:21.085Z,-0.98
2023-03-04T17:15:04.426Z,-1.02
2023-03-04T17:21:46.844Z,-1.08
2023-03-04T17:28:29.591Z,-1.13
2023-03-04T17:35:12.277Z,-1.18
2023-03-04T17:42:00.389Z,-1.24
2023-03-04T17:48:43.280Z,-1.28
2023-03-04T17:55:26.353Z,-1.30
2023-03-04T18:02:16.302Z,-1.36
2023-03-04T18:08:58.661Z,-1.39
2023-03-04T18:15:41.278Z,-1.43
2023-03-04T18:22:25.530Z,-1.45
2023-03-04T19:02:40.978Z,-1.70
2023-03-04T19:09:23.559Z,-1.76
2023-03-04T19:16:06.518Z,-1.82
2023-03-04T19:22:49.101Z,-1.86
2023-03-04T19:29:32.059Z,-1.89
2023-03-04T19:36:14.793Z,-1.90
2023-03-04T19:42:58.074Z,-1.93
2023-03-04T19:49:40.484Z,-1.96
2023-03-04T19:56:23.452Z,-2.08
2023-03-04T20:03:07.832Z,-2.12
2023-03-04T20:09:50.244Z,-2.21
2023-03-04T20:16:35.816Z,-2.28
2023-03-04T20:23:20.387Z,-2.34
2023-03-04T20:30:04.076Z,-2.39
2023-03-04T20:36:46.585Z,-2.41
2023-03-04T20:43:31.237Z,-2.40
2023-03-04T20:50:13.595Z,-2.41
2023-03-04T20:56:59.103Z,-2.40
2023-03-04T21:03:41.518Z,-2.37
2023-03-04T21:10:24.095Z,-2.36
2023-03-04T21:17:06.870Z,-2.37
2023-03-04T21:23:54.842Z,-2.35
2023-03-04T21:30:37.304Z,-2.36
2023-03-04T21:37:21.257Z,-2.38
2023-03-04T21:44:03.678Z,-2.40
2023-03-04T21:50:46.014Z,-2.41
2023-03-04T21:57:28.438Z,-2.42
2023-03-04T22:04:10.705Z,-2.45
2023-03-04T22:10:55.167Z,-2.54
2023-03-04T22:17:37.505Z,-2.61
2023-03-04T22:24:20.639Z,-2.66
2023-03-04T22:31:03.543Z,-2.73
2023-03-04T22:37:45.935Z,-2.79
2023-03-04T22:44:28.292Z,-2.83
2023-03-04T22:51:11.228Z,-2.86
2023-03-04T22:57:53.652Z,-2.89
2023-03-04T23:04:36.202Z,-2.90
2023-03-04T23:11:23.728Z,-2.96
2023-03-04T23:18:06.053Z,-2.97
2023-03-04T23:24:48.420Z,-3.02
2023-03-04T23:31:32.766Z,-3.02
2023-03-04T23:38:15.788Z,-3.06
2023-03-04T23:44:58.195Z,-3.07
2023-03-04T23:51:41.142Z,-3.08
2023-03-04T23:58:23.537Z,-3.09
